createdAt,value
2023-02-19T00:01:37.358Z,8.35
2023-02-19T00:04:07.326Z,6.10
2023-02-19T00:06:35.254Z,8.25
2023-02-19T00:09:02.974Z,8.15
2023-02-19T00:11:32.097Z,7.68
2023-02-19T00:14:00.296Z,6.30
2023-02-19T00:16:38.855Z,8.07
2023-02-19T00:19:08.440Z,6.82
2023-02-19T00:21:34.971Z,6.47
2023-02-19T00:24:04.097Z,8.60
2023-02-19T00:26:30.778Z,5.80
2023-02-19T00:28:58.408Z,5.40
2023-02-19T00:31:27.540Z,5.65
2023-02-19T00:33:57.138Z,6.50
2023-02-19T00:36:24.991Z,7.07
2023-02-19T00:38:52.365Z,7.97
2023-02-19T00:41:20.994Z,5.97
2023-02-19T00:44:09.377Z,6.20
2023-02-19T00:46:39.120Z,6.32
2023-02-19T00:49:07.076Z,6.22
2023-02-19T00:51:36.068Z,6.30
2023-02-19T00:54:02.814Z,6.57
2023-02-19T00:56:29.545Z,7.82
2023-02-19T00:58:56.374Z,7.30
2023-02-19T01:01:23.222Z,7.15
2023-02-19T01:03:49.684Z,7.00
2023-02-19T01:06:18.528Z,7.22
2023-02-19T01:08:45.559Z,7.07
2023-02-19T01:11:13.300Z,6.82
2023-02-19T01:13:40.772Z,7.38
2023-02-19T01:16:20.285Z,6.13
2023-02-19T01:18:47.958Z,7.32
2023-02-19T01:21:17.456Z,6.75
2023-02-19T01:23:45.362Z,8.88
2023-02-19T01:26:14.856Z,7.57
2023-02-19T01:28:43.696Z,8.43
2023-02-19T01:31:13.968Z,9.60
2023-02-19T01:33:43.855Z,9.02
2023-02-19T01:36:11.091Z,8.90
2023-02-19T01:38:37.910Z,9.40
2023-02-19T01:41:09.465Z,11.82
2023-02-19T01:43:59.864Z,11.15
2023-02-19T01:46:40.012Z,9.38
2023-02-19T01:49:35.776Z,12.30
2023-02-19T01:52:10.338Z,9.45
2023-02-19T01:54:39.818Z,11.60
2023-02-19T01:57:11.060Z,12.25
2023-02-19T01:59:38.505Z,11.10
2023-02-19T02:02:05.399Z,9.57
2023-02-19T02:04:34.010Z,9.95
2023-02-19T02:07:03.633Z,11.15
2023-02-19T02:09:49.808Z,9.85
2023-02-19T02:12:16.373Z,9.85
2023-02-19T02:14:47.524Z,14.15
2023-02-19T02:17:32.126Z,10.43
2023-02-19T02:20:26.689Z,9.98
2023-02-19T02:23:03.591Z,10.60
2023-02-19T02:25:51.836Z,12.77
2023-02-19T02:28:52.496Z,10.15
2023-02-19T02:31:29.809Z,12.70
2023-02-19T02:34:01.903Z,13.23
2023-02-19T02:36:32.902Z,14.00
2023-02-19T02:39:03.645Z,10.70
2023-02-19T02:41:30.153Z,12.25
2023-02-19T02:43:56.596Z,13.00
2023-02-19T02:46:30.444Z,11.52
2023-02-19T02:48:58.866Z,11.15
2023-02-19T02:51:38.815Z,11.68
2023-02-19T02:54:29.767Z,10.10
2023-02-19T02:56:58.491Z,12.27
2023-02-19T02:59:28.105Z,10.27
2023-02-19T03:02:11.385Z,15.30
2023-02-19T03:05:32.420Z,16.98
2023-02-19T03:08:10.059Z,12.75
2023-02-19T03:10:45.882Z,11.98
2023-02-19T03:13:35.096Z,13.43
2023-02-19T03:16:36.522Z,12.70
2023-02-19T03:19:20.514Z,16.85
2023-02-19T03:22:00.536Z,12.80
2023-02-19T03:24:50.704Z,15.38
2023-02-19T03:27:20.406Z,9.65
2023-02-19T03:29:50.753Z,12.95
2023-02-19T03:32:44.649Z,10.90
2023-02-19T03:35:27.257Z,10.50
2023-02-19T03:38:06.941Z,11.18
2023-02-19T03:40:41.598Z,14.20
2023-02-19T03:43:23.425Z,10.02
2023-02-19T03:46:10.538Z,9.85
2023-02-19T03:48:41.598Z,9.15
2023-02-19T03:51:20.413Z,12.63
2023-02-19T03:54:17.454Z,14.32
2023-02-19T03:59:34.910Z,12.80
2023-02-19T04:02:09.392Z,8.63
2023-02-19T04:04:47.604Z,10.40
2023-02-19T04:09:46.340Z,14.10
2023-02-19T04:12:14.471Z,11.77
2023-02-19T04:14:46.404Z,9.93
2023-02-19T04:17:42.267Z,8.18
2023-02-19T04:20:10.895Z,11.50
2023-02-19T04:22:39.116Z,8.77
2023-02-19T04:25:06.197Z,12.88
2023-02-19T04:27:35.520Z,9.70
2023-02-19T04:30:02.165Z,9.65
2023-02-19T04:32:28.676Z,11.25
2023-02-19T04:34:55.402Z,9.77
2023-02-19T04:37:21.988Z,14.95
2023-02-19T04:39:48.469Z,13.23
2023-02-19T04:42:15.278Z,10.85
2023-02-19T04:44:41.793Z,9.52
2023-02-19T04:47:08.603Z,13.68
2023-02-19T04:49:35.115Z,8.18
2023-02-19T04:52:01.759Z,11.55
2023-02-19T04:54:28.415Z,10.57
2023-02-19T04:56:55.374Z,9.98
2023-02-19T04:59:22.072Z,9.45
2023-02-19T05:01:51.540Z,8.43
2023-02-19T05:04:18.373Z,12.50
2023-02-19T05:06:45.278Z,10.43
2023-02-19T05:09:12.438Z,10.05
2023-02-19T05:11:38.931Z,9.90
2023-02-19T05:14:05.516Z,11.52
2023-02-19T05:16:33.229Z,11.35
2023-02-19T05:18:59.755Z,13.13
2023-02-19T05:21:26.394Z,7.82
2023-02-19T05:23:53.652Z,7.40
2023-02-19T05:26:22.673Z,11.93
2023-02-19T05:28:51.255Z,10.35
2023-02-19T05:31:18.716Z,9.82
2023-02-19T05:33:48.217Z,7.55
2023-02-19T05:36:14.994Z,12.43
2023-02-19T05:38:47.802Z,7.00
2023-02-19T05:41:17.106Z,12.85
2023-02-19T05:43:46.059Z,10.10
2023-02-19T05:46:14.937Z,10.98
2023-02-19T05:48:42.054Z,9.50
2023-02-19T05:51:13.357Z,11.60
2023-02-19T05:53:40.354Z,10.15
2023-02-19T05:56:26.978Z,9.77
2023-02-19T05:58:57.240Z,9.32
2023-02-19T06:01:26.637Z,7.07
2023-02-19T06:03:56.865Z,9.10
2023-02-19T06:06:24.708Z,7.15
2023-02-19T06:08:54.177Z,9.90
2023-02-19T06:11:21.120Z,9.20
2023-02-19T06:13:49.323Z,8.50
2023-02-19T06:16:17.790Z,9.95
2023-02-19T06:18:45.124Z,6.68
2023-02-19T06:21:13.222Z,7.80
2023-02-19T06:23:40.087Z,9.45
2023-02-19T06:26:12.662Z,12.25
2023-02-19T06:28:40.221Z,7.95
2023-02-19T06:31:08.552Z,13.10
2023-02-19T06:33:36.091Z,12.43
2023-02-19T06:36:04.530Z,9.57
2023-02-19T06:38:31.752Z,11.63
2023-02-19T06:41:02.712Z,13.85
2023-02-19T06:43:29.367Z,9.18
2023-02-19T06:45:58.822Z,8.27
2023-02-19T06:48:26.830Z,8.60
2023-02-19T06:50:53.827Z,10.27
2023-02-19T06:53:22.767Z,8.43
2023-02-19T06:56:03.487Z,10.88
2023-02-19T06:58:30.659Z,8.95
2023-02-19T07:00:57.212Z,12.80
2023-02-19T07:03:23.786Z,9.43
2023-02-19T07:05:50.470Z,13.00
2023-02-19T07:08:17.425Z,10.50
2023-02-19T07:10:45.390Z,11.35
2023-02-19T07:13:11.945Z,8.68
2023-02-19T07:15:38.647Z,11.32
2023-02-19T07:18:07.126Z,16.05
2023-02-19T07:20:33.847Z,10.68
2023-02-19T07:23:00.622Z,10.32
2023-02-19T07:25:27.195Z,11.93
2023-02-19T07:27:53.652Z,7.43
2023-02-19T07:30:20.294Z,10.70
2023-02-19T07:32:46.790Z,9.88
2023-02-19T07:35:13.320Z,8.88
2023-02-19T07:37:42.834Z,12.75
2023-02-19T07:40:12.329Z,11.07
2023-02-19T07:42:38.898Z,8.63
2023-02-19T07:45:05.566Z,11.57
2023-02-19T07:47:32.181Z,12.68
2023-02-19T07:49:58.668Z,11.07
2023-02-19T07:52:25.157Z,11.60
2023-02-19T07:54:51.734Z,10.60
2023-02-19T07:57:18.168Z,8.88
2023-02-19T07:59:44.660Z,9.32
2023-02-19T08:02:38.171Z,8.18
2023-02-19T08:05:05.891Z,13.45
2023-02-19T08:07:34.820Z,7.00
2023-02-19T08:10:20.821Z,8.93
2023-02-19T08:13:14.784Z,9.55
2023-02-19T08:15:41.294Z,11.35
2023-02-19T08:18:08.652Z,7.22
2023-02-19T08:20:35.135Z,6.97
2023-02-19T08:23:01.924Z,9.52
2023-02-19T08:25:28.969Z,9.98
2023-02-19T08:27:55.485Z,10.70
2023-02-19T08:30:22.889Z,9.45
2023-02-19T08:32:49.998Z,6.68
2023-02-19T08:35:16.484Z,8.40
2023-02-19T08:37:43.020Z,7.25
2023-02-19T08:40:11.320Z,8.70
2023-02-19T08:42:38.269Z,4.50
2023-02-19T08:45:05.955Z,5.10
2023-02-19T08:47:38.956Z,6.75
2023-02-19T08:50:07.047Z,12.32
2023-02-19T08:52:33.797Z,6.35
2023-02-19T08:55:00.803Z,7.30
2023-02-19T08:57:30.465Z,9.63
2023-02-19T08:59:59.619Z,5.78
2023-02-19T09:02:26.547Z,9.52
2023-02-19T09:04:53.151Z,9.50
2023-02-19T09:07:20.441Z,8.45
2023-02-19T09:09:56.316Z,5.07
2023-02-19T09:12:23.131Z,6.80
2023-02-19T09:14:49.681Z,7.53
2023-02-19T09:17:19.357Z,7.65
2023-02-19T09:19:46.142Z,15.20
2023-02-19T09:22:18.408Z,5.28
2023-02-19T09:24:44.924Z,8.02
2023-02-19T09:27:16.652Z,5.60
2023-02-19T09:29:43.436Z,10.32
2023-02-19T09:32:10.454Z,9.80
2023-02-19T09:34:41.018Z,9.60
2023-02-19T09:37:10.529Z,6.60
2023-02-19T09:39:37.262Z,12.43
2023-02-19T09:42:22.800Z,7.82
2023-02-19T09:44:54.605Z,5.63
2023-02-19T09:47:26.258Z,3.28
2023-02-19T09:52:42.515Z,10.13
2023-02-19T09:55:20.749Z,7.07
2023-02-19T09:57:47.881Z,4.18
2023-02-19T10:00:26.426Z,5.70
2023-02-19T10:03:09.731Z,9.15
2023-02-19T10:05:38.975Z,9.73
2023-02-19T10:08:12.634Z,7.35
2023-02-19T10:10:39.425Z,7.90
2023-02-19T10:13:21.542Z,8.30
2023-02-19T10:15:50.161Z,13.15
2023-02-19T10:18:23.326Z,7.95
2023-02-19T10:20:52.221Z,5.47
2023-02-19T10:23:22.433Z,4.90
2023-02-19T10:29:17.863Z,7.80
2023-02-19T10:32:24.452Z,8.65
2023-02-19T10:35:20.507Z,9.52
2023-02-19T10:38:13.947Z,2.90
2023-02-19T10:40:51.120Z,4.38
2023-02-19T10:44:32.820Z,8.15
2023-02-19T11:02:03.063Z,6.55
2023-02-19T11:37:36.562Z,7.18
2023-02-19T11:40:03.487Z,5.97
2023-02-19T11:42:40.466Z,6.53
2023-02-19T11:45:42.620Z,9.63
2023-02-19T11:48:25.147Z,6.15
2023-02-19T11:51:13.503Z,5.18
2023-02-19T11:53:53.270Z,5.47
2023-02-19T11:56:43.152Z,4.60
2023-02-19T11:59:26.091Z,5.10
2023-02-19T12:02:12.373Z,7.35
2023-02-19T12:04:56.618Z,7.63
2023-02-19T12:07:58.910Z,7.35
2023-02-19T12:10:50.752Z,5.05
2023-02-19T12:13:41.882Z,5.55
2023-02-19T12:16:21.438Z,8.05
2023-02-19T12:19:18.792Z,9.00
2023-02-19T12:22:05.026Z,3.95
2023-02-19T12:28:01.116Z,4.63
2023-02-19T12:33:45.230Z,3.53
2023-02-19T12:37:03.842Z,5.47
2023-02-19T12:39:39.463Z,5.75
2023-02-19T12:42:32.743Z,7.50
2023-02-19T12:45:06.647Z,7.72
2023-02-19T12:47:41.596Z,4.78
2023-02-19T12:50:21.861Z,11.02
2023-02-19T12:53:00.145Z,7.30
2023-02-19T12:55:33.583Z,6.65
2023-02-19T12:58:05.725Z,4.85
2023-02-19T13:00:51.343Z,5.53
2023-02-19T13:03:25.872Z,5.18
2023-02-19T13:06:15.722Z,7.68
2023-02-19T13:09:06.273Z,6.38
2023-02-19T13:11:44.593Z,5.43
2023-02-19T13:14:36.634Z,6.10
2023-02-19T13:17:13.510Z,6.82
2023-02-19T13:19:41.556Z,7.55
2023-02-19T13:22:41.731Z,5.80
2023-02-19T13:25:24.496Z,4.57
2023-02-19T13:28:15.025Z,6.00
2023-02-19T13:31:03.862Z,7.35
2023-02-19T13:33:48.359Z,3.47
2023-02-19T13:36:38.267Z,7.18
2023-02-19T13:39:11.539Z,3.95
2023-02-19T13:41:54.264Z,5.32
2023-02-19T13:44:34.036Z,7.20
2023-02-19T13:47:26.633Z,6.72
2023-02-19T13:52:42.736Z,8.77
2023-02-19T13:59:14.240Z,3.65
2023-02-19T14:01:51.483Z,4.38
2023-02-19T14:04:42.556Z,3.90
2023-02-19T14:07:09.427Z,6.60
2023-02-19T14:09:42.188Z,4.65
2023-02-19T14:12:15.309Z,4.28
2023-02-19T14:14:46.198Z,5.22
2023-02-19T14:17:27.101Z,7.28
2023-02-19T14:20:03.054Z,6.43
2023-02-19T14:22:45.026Z,9.20
2023-02-19T14:25:35.524Z,7.80
2023-02-19T14:28:12.085Z,6.50
2023-02-19T14:31:09.116Z,7.68
2023-02-19T14:33:40.284Z,10.80
2023-02-19T14:36:24.028Z,8.10
2023-02-19T14:38:58.666Z,6.13
2023-02-19T14:41:27.401Z,5.35
2023-02-19T14:43:56.860Z,10.00
2023-02-19T14:46:39.511Z,5.78
2023-02-19T14:49:24.617Z,5.00
2023-02-19T14:51:56.566Z,5.55
2023-02-19T14:55:01.969Z,3.72
2023-02-19T14:57:33.065Z,4.13
2023-02-19T15:00:02.742Z,5.72
2023-02-19T15:02:35.048Z,4.45
2023-02-19T15:05:02.056Z,5.80
2023-02-19T15:07:31.796Z,7.35
2023-02-19T15:10:05.909Z,4.13
2023-02-19T15:12:45.579Z,9.27
2023-02-19T15:15:23.180Z,3.58
2023-02-19T15:20:32.391Z,7.70
2023-02-19T15:23:09.120Z,7.32
2023-02-19T15:25:57.698Z,4.65
2023-02-19T15:28:38.953Z,5.88
2023-02-19T15:31:26.592Z,4.55
2023-02-19T15:34:01.026Z,5.03
2023-02-19T15:36:35.894Z,6.47
2023-02-19T15:39:03.249Z,4.55
2023-02-19T15:41:37.141Z,5.05
2023-02-19T15:44:28.250Z,6.07
2023-02-19T15:47:12.837Z,8.05
2023-02-19T15:49:53.435Z,4.93
2023-02-19T15:52:36.323Z,4.78
2023-02-19T15:55:15.308Z,5.05
2023-02-19T15:57:52.969Z,4.70
2023-02-19T16:00:56.979Z,7.82
2023-02-19T16:03:26.326Z,8.88
2023-02-19T16:06:01.846Z,6.47
2023-02-19T16:08:31.422Z,9.07
2023-02-19T16:11:01.517Z,6.03
2023-02-19T16:13:31.354Z,5.55
2023-02-19T16:16:20.893Z,8.95
2023-02-19T16:18:50.646Z,9.90
2023-02-19T16:21:35.590Z,9.77
2023-02-19T16:24:37.370Z,9.55
2023-02-19T16:27:04.906Z,6.88
2023-02-19T16:29:36.306Z,8.63
2023-02-19T16:32:08.078Z,8.35
2023-02-19T16:34:52.439Z,9.95
2023-02-19T16:40:40.497Z,7.00
2023-02-19T16:43:18.769Z,7.65
2023-02-19T16:45:47.023Z,7.13
2023-02-19T16:48:14.192Z,7.32
2023-02-19T16:50:46.669Z,5.95
2023-02-19T16:53:25.340Z,2.78
2023-02-19T16:55:52.524Z,4.07
2023-02-19T16:58:19.621Z,5.68
2023-02-19T17:00:53.789Z,3.85
2023-02-19T17:03:33.702Z,5.35
2023-02-19T17:06:03.299Z,2.67
2023-02-19T17:08:47.610Z,5.78
2023-02-19T17:13:48.973Z,5.88
2023-02-19T17:16:26.300Z,3.45
2023-02-19T17:18:54.447Z,6.82
2023-02-19T17:21:30.472Z,6.07
2023-02-19T17:23:58.512Z,5.40
2023-02-19T17:26:28.346Z,6.45
2023-02-19T17:28:59.966Z,4.93
2023-02-19T17:31:29.459Z,4.95
2023-02-19T17:34:06.357Z,4.57
2023-02-19T17:36:33.496Z,5.38
2023-02-19T17:39:04.415Z,5.38
2023-02-19T17:41:31.415Z,4.65
2023-02-19T17:44:00.367Z,5.85
2023-02-19T17:46:27.423Z,5.22
2023-02-19T17:48:55.185Z,3.17
2023-02-19T17:51:24.564Z,4.93
2023-02-19T17:53:51.092Z,7.18
2023-02-19T17:56:20.095Z,7.05
2023-02-19T17:58:50.932Z,6.35
2023-02-19T18:01:19.079Z,5.25
2023-02-19T18:03:45.934Z,9.27
2023-02-19T18:06:14.212Z,9.35
2023-02-19T18:08:47.785Z,12.70
2023-02-19T18:11:19.342Z,4.47
2023-02-19T18:13:49.954Z,8.77
2023-02-19T18:19:01.692Z,7.85
2023-02-19T18:21:28.893Z,5.43
2023-02-19T18:23:56.000Z,5.20
2023-02-19T18:26:25.535Z,4.78
2023-02-19T18:28:53.107Z,5.13
2023-02-19T18:31:19.661Z,6.15
2023-02-19T18:33:46.976Z,4.85
2023-02-19T18:36:15.096Z,5.07
2023-02-19T18:38:42.487Z,6.90
2023-02-19T18:41:13.998Z,9.60
2023-02-19T18:43:42.449Z,5.90
2023-02-19T18:46:09.826Z,7.90
2023-02-19T18:48:37.973Z,9.52
2023-02-19T18:51:09.459Z,9.60
2023-02-19T18:53:38.415Z,5.88
2023-02-19T18:56:06.360Z,6.25
2023-02-19T18:58:32.931Z,7.65
2023-02-19T19:01:00.062Z,7.53
2023-02-19T19:03:29.441Z,7.82
2023-02-19T19:05:56.115Z,9.57
2023-02-19T19:08:22.820Z,9.73
2023-02-19T19:10:49.596Z,7.82
2023-02-19T19:13:17.590Z,9.40
2023-02-19T19:15:49.865Z,9.68
2023-02-19T19:18:16.736Z,9.50
2023-02-19T19:20:43.328Z,9.77
2023-02-19T19:23:09.866Z,10.00
2023-02-19T19:25:37.329Z,11.50
2023-02-19T19:28:03.957Z,13.68
2023-02-19T19:30:31.657Z,8.63
2023-02-19T19:33:02.163Z,7.47
2023-02-19T19:35:28.892Z,7.53
2023-02-19T19:37:55.557Z,10.45
2023-02-19T19:40:22.507Z,8.30
2023-02-19T19:42:52.115Z,11.48
2023-02-19T19:48:26.048Z,8.80
2023-02-19T19:51:00.658Z,6.57
2023-02-19T19:53:28.688Z,9.50
2023-02-19T19:55:55.516Z,10.18
2023-02-19T19:58:24.918Z,7.53
2023-02-19T20:00:52.233Z,13.68
2023-02-19T20:03:20.733Z,15.27
2023-02-19T20:05:51.538Z,8.73
2023-02-19T20:08:18.487Z,12.10
2023-02-19T20:13:29.202Z,10.30
2023-02-19T20:15:56.481Z,13.20
2023-02-19T20:18:28.401Z,9.38
2023-02-19T20:20:57.780Z,13.60
2023-02-19T20:23:32.603Z,10.43
2023-02-19T20:26:24.459Z,11.00
2023-02-19T20:28:54.496Z,9.90
2023-02-19T20:31:24.675Z,11.63
2023-02-19T20:36:46.543Z,11.32
2023-02-19T20:39:21.498Z,14.90
2023-02-19T20:42:04.717Z,14.85
2023-02-19T20:47:14.769Z,18.02
2023-02-19T20:49:53.868Z,15.50
2023-02-19T20:52:21.169Z,11.23
2023-02-19T20:54:48.780Z,15.45
2023-02-19T20:57:25.069Z,13.35
2023-02-19T20:59:52.361Z,22.52
2023-02-19T21:02:24.322Z,16.95
2023-02-19T21:10:12.487Z,15.02
2023-02-19T21:18:23.710Z,10.38
2023-02-19T21:20:58.354Z,6.90
2023-02-19T21:23:28.486Z,8.40
2023-02-19T21:29:14.343Z,6.03
2023-02-19T21:55:07.966Z,6.55
2023-02-19T21:57:35.625Z,8.07
2023-02-19T22:00:03.629Z,6.97
2023-02-19T22:02:30.460Z,10.73
2023-02-19T22:04:57.920Z,8.48
2023-02-19T22:07:25.345Z,8.30
2023-02-19T22:09:52.894Z,11.05
2023-02-19T22:12:20.988Z,8.35
2023-02-19T22:14:47.944Z,5.93
2023-02-19T22:17:14.672Z,7.57
2023-02-19T22:19:41.813Z,7.82
2023-02-19T22:22:08.668Z,10.90
2023-02-19T22:24:35.299Z,8.35
2023-02-19T22:27:03.950Z,5.65
2023-02-19T22:29:30.895Z,9.40
2023-02-19T22:31:57.682Z,8.63
2023-02-19T22:34:24.554Z,10.02
2023-02-19T22:36:51.530Z,9.80
2023-02-19T22:39:23.293Z,5.97
2023-02-19T22:41:51.707Z,7.93
2023-02-19T22:44:18.468Z,6.85
2023-02-19T22:46:51.143Z,6.15
2023-02-19T22:49:18.727Z,6.80
2023-02-19T22:51:51.544Z,8.65
2023-02-19T22:54:18.545Z,12.95
2023-02-19T22:56:45.182Z,8.63
2023-02-19T22:59:11.856Z,7.15
2023-02-19T23:01:39.074Z,10.10
2023-02-19T23:04:06.256Z,6.85
2023-02-19T23:06:35.065Z,10.27
2023-02-19T23:09:05.823Z,7.30
2023-02-19T23:11:35.550Z,7.18
2023-02-19T23:14:02.544Z,10.43
2023-02-19T23:16:29.641Z,8.32
2023-02-19T23:18:56.512Z,10.48
2023-02-19T23:21:23.606Z,7.90
2023-02-19T23:23:53.390Z,9.63
2023-02-19T23:26:20.488Z,8.02
2023-02-19T23:28:47.285Z,12.48
2023-02-19T23:31:15.539Z,8.75
2023-02-19T23:33:43.061Z,11.45
2023-02-19T23:36:11.171Z,11.55
2023-02-19T23:38:38.413Z,7.18
2023-02-19T23:41:13.147Z,9.55
2023-02-19T23:43:40.054Z,7.57
2023-02-19T23:46:06.902Z,10.88
2023-02-19T23:48:34.163Z,8.05
2023-02-19T23:51:01.226Z,8.05
2023-02-19T23:53:28.071Z,10.52
2023-02-19T23:55:56.855Z,9.02
2023-02-19T23:58:23.688Z,12.82
